Time;durP1;ratioP1;P1;durP2;ratioP2;P2;SDS_P1;SDS_P2;PMS_P1;PMS_P2;Temp;Humidity;BMP_temperature;BMP_pressure;BME280_temperature;BME280_humidity;BME280_pressure;Samples;Min_cycle;Max_cycle;Signal;HPM_P1;HPM_P2
2022/04/20 00:02:09;;;;;;;;;;;;;;;10.17;64.97;101422.28;4990379;28;2035;-95
2022/04/20 00:04:36;;;;;;;;;;;;;;;10.16;64.97;101422.50;4981693;28;1281;-95
2022/04/20 00:07:02;;;;;;;;;;;;;;;10.15;64.96;101420.84;4981414;28;1994;-95
2022/04/20 00:09:29;;;;;;;;;;;;;;;10.15;64.83;101420.84;4981361;28;1212;-95
2022/04/20 00:11:55;;;;;;;;;;;;;;;10.14;64.85;101424.53;4979702;28;2010;-94
2022/04/20 00:14:22;;;;;;;;;;;;;;;10.12;64.88;101423.94;4981414;28;1317;-95
2022/04/20 00:16:48;;;;;;;;;;;;;;;10.11;65.00;101422.25;4980478;28;1845;-95
2022/04/20 00:19:15;;;;;;;;;;;;;;;10.10;64.90;101423.28;4981231;28;1181;-94
2022/04/20 00:21:41;;;;;;;;;;;;;;;10.09;64.70;101430.53;4980829;28;1505;-95
2022/04/20 00:24:08;;;;;;;;;;;;;;;10.08;64.69;101431.53;4981391;28;1194;-95
2022/04/20 00:26:34;;;;;;;;;;;;;;;10.07;64.63;101426.38;4977903;28;1915;-94
2022/04/20 00:29:01;;;;;;;;;;;;;;;10.05;64.78;101421.16;4972264;28;1301;-95
2022/04/20 00:31:27;;;;;;;;;;;;;;;10.05;64.56;101433.78;5011841;28;2036;-94
2022/04/20 00:33:54;;;;;;;;;;;;;;;10.02;64.69;101430.44;4980914;28;1306;-95
2022/04/20 00:36:21;;;;;;;;;;;;;;;10.02;64.56;101427.75;4981120;28;1234;-95
2022/04/20 00:38:47;;;;;;;;;;;;;;;10.00;64.59;101429.84;4977811;28;1182;-95
2022/04/20 00:41:14;;;;;;;;;;;;;;;10.00;64.57;101437.09;4977544;28;1548;-95
2022/04/20 00:43:40;;;;;;;;;;;;;;;9.99;64.60;101430.03;4977912;28;1170;-95
2022/04/20 00:46:07;;;;;;;;;;;;;;;9.98;64.45;101436.44;4980320;28;1959;-95
2022/04/20 00:48:35;;;;;;;;;;;;;;;9.96;64.50;101438.47;4980886;28;1914;-95
2022/04/20 00:51:02;;;;;;;;;;;;;;;9.95;64.61;101439.53;4980691;28;1565;-94
2022/04/20 00:53:28;;;;;;;;;;;;;;;9.94;64.54;101448.59;4981044;28;1188;-95
2022/04/20 00:55:55;;;;;;;;;;;;;;;9.93;64.40;101449.63;4980648;28;1348;-95
2022/04/20 00:58:21;;;;;;;;;;;;;;;9.91;64.55;101452.53;4977602;28;1289;-95
2022/04/20 01:00:48;;;;;;;;;;;;;;;9.90;64.37;101450.84;4961878;28;2149;-95
2022/04/20 01:03:15;;;;;;;;;;;;;;;9.89;64.39;101441.13;4981123;28;1362;-95
2022/04/20 01:05:41;;;;;;;;;;;;;;;9.87;64.36;101443.16;4979861;28;1667;-95
2022/04/20 01:08:08;;;;;;;;;;;;;;;9.87;64.32;101445.03;4980944;28;1974;-94
2022/04/20 01:10:34;;;;;;;;;;;;;;;9.84;64.42;101446.25;4979333;28;2110;-95
2022/04/20 01:13:01;;;;;;;;;;;;;;;9.84;64.28;101440.03;4961247;28;1200;-95
2022/04/20 01:15:27;;;;;;;;;;;;;;;9.82;64.21;101448.28;4968640;28;3682;-94
2022/04/20 01:17:54;;;;;;;;;;;;;;;9.81;64.42;101453.88;4982292;28;3295;-95
2022/04/20 01:20:20;;;;;;;;;;;;;;;9.80;64.29;101455.75;4980532;28;1216;-95
2022/04/20 01:22:47;;;;;;;;;;;;;;;9.79;64.29;101462.13;4980412;28;1292;-94
2022/04/20 01:25:13;;;;;;;;;;;;;;;9.77;64.19;101461.50;4996399;28;1173;-95
2022/04/20 01:27:40;;;;;;;;;;;;;;;9.75;64.34;101459.00;4994033;28;1972;-94
2022/04/20 01:30:06;;;;;;;;;;;;;;;9.75;64.22;101463.53;4992753;28;1382;-95
2022/04/20 01:32:33;;;;;;;;;;;;;;;9.74;64.31;101469.97;4988220;28;2045;-94
2022/04/20 01:35:00;;;;;;;;;;;;;;;9.73;64.26;101468.28;4996320;28;1336;-95
2022/04/20 01:37:26;;;;;;;;;;;;;;;9.71;64.25;101471.16;4996358;28;1306;-95
2022/04/20 01:39:53;;;;;;;;;;;;;;;9.71;64.05;101473.03;4998874;28;1962;-95
2022/04/20 01:42:19;;;;;;;;;;;;;;;9.68;64.25;101471.56;4980559;28;1321;-94
2022/04/20 01:44:46;;;;;;;;;;;;;;;9.66;64.19;101468.22;4979543;28;1509;-95
2022/04/20 01:47:13;;;;;;;;;;;;;;;9.66;64.16;101467.38;4956917;28;2683;-95
2022/04/20 01:49:39;;;;;;;;;;;;;;;9.66;64.19;101470.06;4942316;29;1208;-95
2022/04/20 01:52:06;;;;;;;;;;;;;;;9.63;63.98;101468.59;4938330;29;1190;-94
2022/04/20 01:54:33;;;;;;;;;;;;;;;9.63;63.92;101467.78;4938031;29;1147;-95
2022/04/20 01:56:59;;;;;;;;;;;;;;;9.61;64.05;101473.31;4941381;29;2071;-94
2022/04/20 01:59:26;;;;;;;;;;;;;;;9.60;64.13;101474.38;4955329;29;2064;-94
2022/04/20 02:04:36;;;;;;;;;;;;;;;9.58;63.82;101478.25;4957360;29;1170;-95
2022/04/20 02:07:03;;;;;;;;;;;;;;;9.57;64.06;101476.59;4956638;28;1902;-94
2022/04/20 02:09:29;;;;;;;;;;;;;;;9.55;63.83;101474.91;4955921;28;1630;-94
2022/04/20 02:11:56;;;;;;;;;;;;;;;9.53;64.03;101474.28;4942199;29;1757;-95
2022/04/20 02:14:23;;;;;;;;;;;;;;;9.52;63.72;101482.53;4947373;29;1890;-94
2022/04/20 02:16:49;;;;;;;;;;;;;;;9.51;63.91;101472.81;4954356;29;2047;-95
2022/04/20 02:19:16;;;;;;;;;;;;;;;9.50;63.70;101477.38;4954771;29;1695;-95
2022/04/20 02:21:43;;;;;;;;;;;;;;;9.49;63.74;101472.16;4956562;29;1463;-95
2022/04/20 02:24:10;;;;;;;;;;;;;;;9.48;63.59;101479.41;4953112;28;1327;-95
2022/04/20 02:26:36;;;;;;;;;;;;;;;9.45;63.72;101482.47;4954268;29;1626;-94
2022/04/20 02:29:03;;;;;;;;;;;;;;;9.45;63.89;101473.56;4942207;29;1949;-95
2022/04/20 02:31:29;;;;;;;;;;;;;;;9.44;63.62;101482.66;4951756;29;1831;-95
2022/04/20 02:33:56;;;;;;;;;;;;;;;9.43;63.83;101487.19;4951008;29;2017;-95
2022/04/20 02:36:22;;;;;;;;;;;;;;;9.43;63.58;101481.00;4947186;29;1560;-94
2022/04/20 02:38:49;;;;;;;;;;;;;;;9.41;63.68;101489.25;4940765;29;1652;-95
2022/04/20 02:41:15;;;;;;;;;;;;;;;9.40;63.72;101492.13;4937297;29;1944;-95
2022/04/20 02:43:42;;;;;;;;;;;;;;;9.38;63.74;101492.31;4954949;29;1964;-94
2022/04/20 02:46:08;;;;;;;;;;;;;;;9.38;63.63;101497.69;4956931;28;1974;-95
2022/04/20 02:48:35;;;;;;;;;;;;;;;9.37;63.58;101500.56;4993222;28;2053;-95
2022/04/20 02:51:02;;;;;;;;;;;;;;;9.35;63.53;101500.75;4978001;28;1659;-95
2022/04/20 02:53:28;;;;;;;;;;;;;;;9.34;63.43;101499.09;4970532;28;1592;-94
2022/04/20 02:55:55;;;;;;;;;;;;;;;9.32;63.29;101499.28;4993124;28;1750;-95
2022/04/20 02:58:21;;;;;;;;;;;;;;;9.30;63.35;101497.81;4973273;28;1462;-95
2022/04/20 03:00:48;;;;;;;;;;;;;;;9.29;63.58;101497.00;4974473;28;1681;-95
2022/04/20 03:03:15;;;;;;;;;;;;;;;9.28;63.29;101505.22;4974549;28;2188;-94
2022/04/20 03:05:41;;;;;;;;;;;;;;;9.28;63.49;101507.91;4978282;28;1851;-95
2022/04/20 03:08:08;;;;;;;;;;;;;;;9.27;63.33;101503.56;4995941;28;1906;-94
2022/04/20 03:10:34;;;;;;;;;;;;;;;9.26;63.49;101508.09;4977625;28;1880;-94
2022/04/20 03:13:01;;;;;;;;;;;;;;;9.24;63.12;101503.94;4978372;28;1311;-95
2022/04/20 03:15:27;;;;;;;;;;;;;;;9.23;63.46;101507.63;4978435;28;1308;-94
2022/04/20 03:17:54;;;;;;;;;;;;;;;9.22;63.26;101514.03;4977294;28;2190;-94
2022/04/20 03:20:21;;;;;;;;;;;;;;;9.20;63.28;101511.53;4977735;28;2058;-95
2022/04/20 03:22:47;;;;;;;;;;;;;;;9.17;63.11;101498.47;4980031;28;1170;-95
2022/04/20 03:25:14;;;;;;;;;;;;;;;9.18;63.16;101504.69;4982378;28;1308;-94
2022/04/20 03:27:41;;;;;;;;;;;;;;;9.16;63.19;101512.09;4998556;28;1918;-94
2022/04/20 03:30:07;;;;;;;;;;;;;;;9.15;63.00;101521.16;4997408;28;1979;-95
2022/04/20 03:32:34;;;;;;;;;;;;;;;9.13;63.09;101510.63;4982453;28;1194;-94
2022/04/20 03:35:01;;;;;;;;;;;;;;;9.13;63.14;101518.69;4981315;28;2009;-93
2022/04/20 03:37:27;;;;;;;;;;;;;;;9.12;63.17;101522.41;4982275;28;1163;-93
2022/04/20 03:39:54;;;;;;;;;;;;;;;9.10;63.03;101522.56;4981879;28;1229;-93
2022/04/20 03:42:21;;;;;;;;;;;;;;;9.07;63.14;101520.25;5014671;28;1585;-93
2022/04/20 03:44:48;;;;;;;;;;;;;;;9.07;63.19;101540.94;5014615;28;1217;-93
2022/04/20 03:47:14;;;;;;;;;;;;;;;9.05;62.99;101538.41;4975290;28;4310;-93
2022/04/20 03:49:41;;;;;;;;;;;;;;;9.04;62.88;101542.13;4993074;28;2014;-93
2022/04/20 03:52:07;;;;;;;;;;;;;;;9.01;62.95;101545.19;4982051;28;1412;-93
2022/04/20 03:54:34;;;;;;;;;;;;;;;9.00;62.95;101548.91;5007580;28;1200;-93
2022/04/20 03:57:10;;;;;;;;;;;;;;;8.98;63.17;101552.78;4969118;28;1439;-93
2022/04/20 03:59:36;;;;;;;;;;;;;;;8.97;62.98;101548.41;4975806;28;1234;-93
2022/04/20 04:02:03;;;;;;;;;;;;;;;8.96;63.19;101557.50;4983620;28;1997;-93
2022/04/20 04:04:29;;;;;;;;;;;;;;;8.95;62.93;101554.00;4997405;28;1904;-93
2022/04/20 04:06:56;;;;;;;;;;;;;;;8.94;62.71;101560.41;4997413;28;1383;-93
2022/04/20 04:09:22;;;;;;;;;;;;;;;8.93;62.93;101552.50;4981602;28;1990;-93
2022/04/20 04:11:50;;;;;;;;;;;;;;;8.90;63.08;101551.00;4997664;28;1276;-93
2022/04/20 04:14:17;;;;;;;;;;;;;;;8.91;62.75;101555.34;4981745;28;1224;-93
2022/04/20 04:16:44;;;;;;;;;;;;;;;8.88;63.13;101555.72;5004675;28;2357;-93
2022/04/20 04:19:11;;;;;;;;;;;;;;;8.86;62.86;101555.09;4961654;28;2183;-93
2022/04/20 04:21:38;;;;;;;;;;;;;;;8.85;62.93;101564.16;4962343;28;1158;-93
2022/04/20 04:24:04;;;;;;;;;;;;;;;8.84;62.90;101557.97;4994542;28;1175;-93
2022/04/20 04:26:31;;;;;;;;;;;;;;;8.83;63.04;101560.84;4992695;28;1552;-94
2022/04/20 04:28:57;;;;;;;;;;;;;;;8.82;63.03;101564.53;4980026;28;2242;-93
2022/04/20 04:31:24;;;;;;;;;;;;;;;8.80;62.85;101562.03;4981452;28;1190;-93
2022/04/20 04:33:51;;;;;;;;;;;;;;;8.80;62.49;101559.34;4979655;28;1903;-93
2022/04/20 04:36:17;;;;;;;;;;;;;;;8.80;62.68;101564.72;4979009;28;2160;-94
2022/04/20 04:38:44;;;;;;;;;;;;;;;8.80;62.56;101569.28;4998656;28;953;-94
2022/04/20 04:41:10;;;;;;;;;;;;;;;8.78;62.57;101571.28;4980610;28;1342;-93
2022/04/20 04:43:37;;;;;;;;;;;;;;;8.76;62.61;101574.16;4998063;28;964;-93
2022/04/20 04:48:48;;;;;;;;;;;;;;;8.74;62.69;101580.75;4980813;28;2108;-93
2022/04/20 04:51:15;;;;;;;;;;;;;;;8.73;62.38;101582.56;4998123;28;981;-93
2022/04/20 04:53:41;;;;;;;;;;;;;;;8.71;62.72;101579.25;4980874;28;1312;-93
2022/04/20 04:56:08;;;;;;;;;;;;;;;8.70;62.37;101588.31;4977041;28;1169;-94
2022/04/20 04:58:34;;;;;;;;;;;;;;;8.70;62.52;101582.94;4996811;28;1192;-93
2022/04/20 05:01:01;;;;;;;;;;;;;;;8.69;62.54;101588.50;4979689;28;1948;-94
2022/04/20 05:03:27;;;;;;;;;;;;;;;8.68;62.43;101587.69;4981042;28;1291;-93
2022/04/20 05:05:54;;;;;;;;;;;;;;;8.67;62.48;101591.34;4979929;28;1991;-93
2022/04/20 05:08:21;;;;;;;;;;;;;;;8.65;62.47;101585.34;4997474;28;1985;-93
2022/04/20 05:10:47;;;;;;;;;;;;;;;8.62;62.73;101588.41;4978148;28;1533;-93
2022/04/20 05:13:14;;;;;;;;;;;;;;;8.60;62.57;101591.25;4979713;28;1922;-93
2022/04/20 05:15:41;;;;;;;;;;;;;;;8.59;62.81;101588.78;4980397;28;1194;-93
2022/04/20 05:18:07;;;;;;;;;;;;;;;8.58;62.68;101600.50;4984957;28;1524;-93
2022/04/20 05:20:34;;;;;;;;;;;;;;;8.56;62.41;101598.03;4973898;28;2145;-93
2022/04/20 05:23:00;;;;;;;;;;;;;;;8.55;62.68;101599.00;4980296;28;1304;-93
2022/04/20 05:25:27;;;;;;;;;;;;;;;8.54;62.68;101600.03;4997240;28;1600;-93
2022/04/20 05:27:53;;;;;;;;;;;;;;;8.52;62.71;101598.53;4973963;28;2038;-93
2022/04/20 05:30:20;;;;;;;;;;;;;;;8.53;62.36;101608.25;4960527;28;1279;-93
2022/04/20 05:32:46;;;;;;;;;;;;;;;8.52;62.39;101604.75;4979914;28;1301;-93
2022/04/20 05:35:13;;;;;;;;;;;;;;;8.52;62.60;101604.75;4998806;28;1824;-93
2022/04/20 05:43:08;;;;;;;;;;;;;;;8.50;62.30;101603.25;4979622;28;1940;-93
2022/04/20 05:45:36;;;;;;;;;;;;;;;8.48;62.65;101603.44;4973594;28;2030;-93
2022/04/20 05:48:03;;;;;;;;;;;;;;;8.48;62.40;101611.50;4974234;28;1956;-93
2022/04/20 05:50:29;;;;;;;;;;;;;;;8.48;62.17;101611.50;4966544;28;2010;-93
2022/04/20 05:52:56;;;;;;;;;;;;;;;8.46;62.33;101610.00;4973097;28;1208;-93
2022/04/20 05:55:22;;;;;;;;;;;;;;;8.47;62.09;101611.66;4967975;28;1559;-92
2022/04/20 05:57:49;;;;;;;;;;;;;;;8.47;62.15;101608.97;4976554;28;1297;-95
2022/04/20 06:00:15;;;;;;;;;;;;;;;8.46;62.22;101612.69;4974965;28;2110;-94
2022/04/20 06:02:42;;;;;;;;;;;;;;;8.44;62.34;101615.53;4976220;28;1450;-94
2022/04/20 06:05:09;;;;;;;;;;;;;;;8.44;62.03;101617.41;4975471;28;2047;-94
2022/04/20 06:07:35;;;;;;;;;;;;;;;8.42;62.38;101625.66;4975899;28;1979;-94
2022/04/20 06:10:01;;;;;;;;;;;;;;;8.43;62.22;101627.31;4975996;28;1914;-94
2022/04/20 06:12:28;;;;;;;;;;;;;;;8.42;62.06;101628.34;4976033;28;1536;-94
2022/04/20 06:14:55;;;;;;;;;;;;;;;8.42;62.03;101617.59;4975877;28;1650;-95
2022/04/20 06:17:21;;;;;;;;;;;;;;;8.43;61.97;101626.47;4968840;28;4955;-95
2022/04/20 06:19:48;;;;;;;;;;;;;;;8.41;62.00;101623.97;4967971;28;1349;-94
2022/04/20 06:22:14;;;;;;;;;;;;;;;8.40;62.17;101619.63;4965610;28;1999;-94
2022/04/20 06:24:41;;;;;;;;;;;;;;;8.39;62.06;101621.47;4962147;28;993;-95
2022/04/20 06:27:08;;;;;;;;;;;;;;;8.40;61.87;101628.50;4996650;28;985;-95
2022/04/20 06:29:35;;;;;;;;;;;;;;;8.39;62.09;101621.47;4995429;28;1976;-94
2022/04/20 06:32:02;;;;;;;;;;;;;;;8.38;62.02;101630.56;4970634;28;1781;-94
2022/04/20 06:34:28;;;;;;;;;;;;;;;8.38;62.16;101627.88;4975318;28;1555;-94
2022/04/20 06:36:55;;;;;;;;;;;;;;;8.39;61.98;101628.69;4974137;28;2022;-92
2022/04/20 06:39:21;;;;;;;;;;;;;;;8.37;62.09;101623.47;4974891;28;1787;-93
2022/04/20 06:41:48;;;;;;;;;;;;;;;8.38;62.10;101619.81;4974696;28;1776;-93
2022/04/20 06:44:14;;;;;;;;;;;;;;;8.38;61.99;101619.81;4970197;28;4649;-93
2022/04/20 06:46:41;;;;;;;;;;;;;;;8.37;61.82;101620.78;4958669;28;2968;-92
2022/04/20 06:49:08;;;;;;;;;;;;;;;8.38;61.70;101618.91;4945702;29;2115;-93
2022/04/20 06:59:44;;;;;;;;;;;;;;;8.36;61.89;101621.81;4944237;29;1812;-93
2022/04/20 07:02:11;;;;;;;;;;;;;;;8.35;61.82;101620.13;4956553;29;1245;-93
2022/04/20 07:04:37;;;;;;;;;;;;;;;8.35;61.78;101627.34;4970067;28;2042;-93
2022/04/20 07:07:04;;;;;;;;;;;;;;;8.34;61.86;101623.81;4957138;28;1296;-92
2022/04/20 07:09:30;;;;;;;;;;;;;;;8.35;61.77;101627.34;4956133;29;1911;-93
2022/04/20 07:11:57;;;;;;;;;;;;;;;8.34;61.62;101629.19;4956075;29;2063;-93
2022/04/20 07:14:24;;;;;;;;;;;;;;;8.35;61.60;101633.56;4956053;29;1209;-93
2022/04/20 07:16:50;;;;;;;;;;;;;;;8.34;61.72;101628.34;4955920;29;1288;-93
2022/04/20 07:19:17;;;;;;;;;;;;;;;8.32;61.50;101617.78;4939977;29;1190;-93
2022/04/20 07:21:43;;;;;;;;;;;;;;;8.34;61.65;101625.66;4937755;29;2167;-93
2022/04/20 07:24:10;;;;;;;;;;;;;;;8.33;61.61;101630.22;4936739;29;1204;-93
2022/04/20 07:26:36;;;;;;;;;;;;;;;8.33;61.76;101624.84;4952891;29;1249;-93
2022/04/20 07:29:03;;;;;;;;;;;;;;;8.34;61.80;101626.50;4936586;29;1973;-93
2022/04/20 07:31:29;;;;;;;;;;;;;;;8.33;61.68;101624.84;4950896;29;1990;-93
2022/04/20 07:33:56;;;;;;;;;;;;;;;8.34;61.62;101623.00;4956047;28;1221;-93
2022/04/20 07:36:22;;;;;;;;;;;;;;;8.33;61.69;101618.66;4955162;29;1854;-93
2022/04/20 07:38:50;;;;;;;;;;;;;;;8.34;61.53;101623.00;4955723;29;1165;-93
2022/04/20 07:41:16;;;;;;;;;;;;;;;8.33;61.41;101619.47;4955759;29;2064;-93
2022/04/20 07:43:43;;;;;;;;;;;;;;;8.34;61.61;101613.09;4956691;29;958;-93
2022/04/20 07:46:10;;;;;;;;;;;;;;;8.33;61.49;101622.16;4964322;28;1230;-93
2022/04/20 07:48:36;;;;;;;;;;;;;;;8.33;61.63;101635.59;4975208;28;1910;-93
2022/04/20 07:51:03;;;;;;;;;;;;;;;8.34;61.48;101631.03;4973791;28;2074;-93
2022/04/20 07:53:29;;;;;;;;;;;;;;;8.34;61.72;101631.03;4974990;28;1180;-92
2022/04/20 07:55:56;;;;;;;;;;;;;;;8.35;61.62;101628.19;4974947;28;1173;-94
2022/04/20 07:58:22;;;;;;;;;;;;;;;8.37;61.32;101636.06;4991054;28;1214;-93
2022/04/20 08:00:51;;;;;;;;;;;;;;;8.38;61.40;101632.34;4974663;28;1911;-93
2022/04/20 08:03:19;;;;;;;;;;;;;;;8.36;61.38;101637.91;4962374;28;1260;-94
2022/04/20 08:05:45;;;;;;;;;;;;;;;8.36;61.35;101632.53;4973934;28;2020;-93
2022/04/20 08:08:12;;;;;;;;;;;;;;;8.37;61.27;101636.88;4975508;28;1196;-93
2022/04/20 08:10:38;;;;;;;;;;;;;;;8.37;61.51;101628.81;4978287;28;2016;-93
2022/04/20 08:14:09;;;;;;;;;;;;;;;8.38;61.64;101635.91;4978228;28;1169;-93
2022/04/20 08:15:58;;;;;;;;;;;;;;;8.40;61.23;101625.00;4978178;28;1188;-93
2022/04/20 08:18:25;;;;;;;;;;;;;;;8.40;61.41;101614.25;4978545;28;1196;-93
2022/04/20 08:20:51;;;;;;;;;;;;;;;8.41;61.59;101624.81;4974595;28;1884;-93
2022/04/20 08:23:18;;;;;;;;;;;;;;;8.42;61.36;101617.59;4976409;28;1948;-93
2022/04/20 08:25:44;;;;;;;;;;;;;;;8.42;61.67;101620.28;4977636;28;1577;-93
2022/04/20 08:28:11;;;;;;;;;;;;;;;8.44;61.54;101622.78;4978164;28;1334;-94
2022/04/20 08:30:37;;;;;;;;;;;;;;;8.44;61.48;101628.97;4976941;28;1979;-94
2022/04/20 08:33:06;;;;;;;;;;;;;;;8.45;61.54;101624.47;4978114;28;1288;-93
2022/04/20 08:35:32;;;;;;;;;;;;;;;8.47;61.21;101625.09;4977574;28;1963;-93
2022/04/20 08:37:59;;;;;;;;;;;;;;;8.46;61.13;101624.25;4977976;28;1197;-93
2022/04/20 08:40:25;;;;;;;;;;;;;;;8.48;61.41;101621.41;4994134;28;1325;-94
2022/04/20 08:42:52;;;;;;;;;;;;;;;8.47;61.52;101620.59;4994114;28;1222;-94
2022/04/20 08:45:18;;;;;;;;;;;;;;;8.46;61.54;101618.91;4990166;28;1813;-94
2022/04/20 08:47:45;;;;;;;;;;;;;;;8.47;61.55;101625.09;4976940;28;4812;-93
2022/04/20 08:50:11;;;;;;;;;;;;;;;8.46;61.43;101612.69;4979119;28;1981;-92
2022/04/20 08:52:38;;;;;;;;;;;;;;;8.47;61.59;101608.97;5003793;28;2417;-93
2022/04/20 08:55:05;;;;;;;;;;;;;;;8.48;61.59;101606.13;4961656;28;1213;-93
2022/04/20 08:57:32;;;;;;;;;;;;;;;8.50;61.62;101608.63;4961487;28;1190;-94
2022/04/20 08:59:58;;;;;;;;;;;;;;;8.49;61.73;101612.34;4988678;28;1347;-93
2022/04/20 09:02:25;;;;;;;;;;;;;;;8.49;61.25;101615.84;4977705;28;1358;-93
2022/04/20 09:04:51;;;;;;;;;;;;;;;8.50;61.44;101609.47;4982861;28;2073;-94
2022/04/20 09:07:18;;;;;;;;;;;;;;;8.50;61.72;101606.81;4996817;28;1289;-93
2022/04/20 09:09:44;;;;;;;;;;;;;;;8.50;61.38;101608.63;4980295;28;1918;-94
2022/04/20 09:12:12;;;;;;;;;;;;;;;8.50;61.63;101609.47;4991897;28;1244;-93
2022/04/20 09:14:38;;;;;;;;;;;;;;;8.51;61.79;101603.09;5002016;28;1195;-93
2022/04/20 09:17:05;;;;;;;;;;;;;;;8.51;61.87;101597.72;4977531;28;2550;-93
2022/04/20 09:19:31;;;;;;;;;;;;;;;8.52;61.56;101596.69;4982039;28;1978;-94
2022/04/20 09:21:58;;;;;;;;;;;;;;;8.55;61.82;101600.88;4980365;28;1296;-95
2022/04/20 09:24:24;;;;;;;;;;;;;;;8.55;61.84;101600.88;5001647;28;1213;-94
2022/04/20 09:26:51;;;;;;;;;;;;;;;8.57;61.83;101596.16;4980043;28;1323;-94
2022/04/20 09:29:18;;;;;;;;;;;;;;;8.57;61.74;101597.00;4977648;28;1980;-93
2022/04/20 09:31:44;;;;;;;;;;;;;;;8.58;61.74;101589.78;4996515;28;1235;-93
2022/04/20 09:34:11;;;;;;;;;;;;;;;8.59;61.94;101597.66;4994910;28;2130;-94
2022/04/20 09:36:37;;;;;;;;;;;;;;;8.61;62.07;101590.22;4979885;28;1334;-93
2022/04/20 09:39:04;;;;;;;;;;;;;;;8.62;61.86;101588.41;4979952;28;1170;-94
2022/04/20 09:41:30;;;;;;;;;;;;;;;8.63;62.05;101584.69;4980266;28;1190;-94
2022/04/20 09:43:57;;;;;;;;;;;;;;;8.66;62.09;101583.50;4997218;28;1047;-94
2022/04/20 09:49:08;;;;;;;;;;;;;;;8.68;62.00;101578.75;4978611;28;2054;-94
2022/04/20 09:51:34;;;;;;;;;;;;;;;8.69;62.06;101575.09;4979705;28;1202;-94
2022/04/20 09:54:01;;;;;;;;;;;;;;;8.68;61.93;101568.88;4980029;28;1265;-94
2022/04/20 09:56:27;;;;;;;;;;;;;;;8.71;62.08;101556.94;4979928;28;1390;-94
2022/04/20 09:58:54;;;;;;;;;;;;;;;8.73;61.77;101562.94;4980142;28;1292;-94
2022/04/20 10:01:20;;;;;;;;;;;;;;;8.75;62.10;101558.22;4979804;28;2091;-94
2022/04/20 10:03:47;;;;;;;;;;;;;;;8.76;61.99;101557.19;4978908;28;2034;-95
2022/04/20 10:06:14;;;;;;;;;;;;;;;8.77;62.06;101556.22;4979698;28;1330;-95
2022/04/20 10:08:41;;;;;;;;;;;;;;;8.78;62.32;101556.00;4979509;28;1233;-96
2022/04/20 10:11:07;;;;;;;;;;;;;;;8.79;62.34;101552.28;4976061;28;1919;-94
2022/04/20 10:13:36;;;;;;;;;;;;;;;8.81;62.21;101549.44;4962698;28;1932;-94
2022/04/20 10:16:05;;;;;;;;;;;;;;;8.82;62.01;101545.72;4979305;28;1205;-95
2022/04/20 10:18:32;;;;;;;;;;;;;;;8.82;62.41;101559.16;4978340;28;1999;-94
2022/04/20 10:20:58;;;;;;;;;;;;;;;8.84;62.28;101543.69;4996832;28;1020;-95
2022/04/20 10:23:25;;;;;;;;;;;;;;;8.85;62.13;101542.66;4995570;28;1185;-95
2022/04/20 10:25:51;;;;;;;;;;;;;;;8.88;62.54;101536.91;4995656;28;1217;-94
2022/04/20 10:28:18;;;;;;;;;;;;;;;8.87;62.39;101528.03;4995123;28;2173;-95
2022/04/20 10:30:45;;;;;;;;;;;;;;;8.90;62.36;101532.22;4978271;28;2139;-94
2022/04/20 10:33:11;;;;;;;;;;;;;;;8.92;62.32;101537.41;4959573;28;1958;-95
2022/04/20 10:35:38;;;;;;;;;;;;;;;8.93;62.30;101529.16;4994935;28;1293;-95
2022/04/20 10:38:04;;;;;;;;;;;;;;;8.95;62.58;101527.13;4982944;28;1240;-94
2022/04/20 10:40:31;;;;;;;;;;;;;;;8.97;62.65;101521.53;4998530;28;1221;-95
2022/04/20 10:42:57;;;;;;;;;;;;;;;8.99;62.69;101524.91;4998164;28;1291;-95
2022/04/20 10:45:24;;;;;;;;;;;;;;;9.00;62.47;101519.34;4998070;28;1198;-95
2022/04/20 10:47:50;;;;;;;;;;;;;;;9.03;62.71;101521.66;4998430;28;1314;-95
2022/04/20 10:50:17;;;;;;;;;;;;;;;9.04;62.63;101520.63;4978684;28;1999;-95
2022/04/20 10:52:44;;;;;;;;;;;;;;;9.06;62.79;101515.91;5011504;28;1193;-95
2022/04/20 10:55:11;;;;;;;;;;;;;;;9.06;62.59;101510.53;5002854;28;1320;-95
2022/04/20 10:57:38;;;;;;;;;;;;;;;9.08;62.98;101505.78;4978755;28;1298;-95
2022/04/20 11:00:04;;;;;;;;;;;;;;;9.10;62.68;101505.63;4977602;28;2038;-95
2022/04/20 11:02:31;;;;;;;;;;;;;;;9.13;62.73;101507.94;4978831;28;1317;-95
2022/04/20 11:04:57;;;;;;;;;;;;;;;9.15;62.61;101500.53;4977349;28;1991;-95
2022/04/20 11:07:26;;;;;;;;;;;;;;;9.16;62.90;101495.97;4979061;28;1422;-95
2022/04/20 11:09:53;;;;;;;;;;;;;;;9.17;63.02;101498.47;4968401;28;1910;-95
2022/04/20 11:20:32;;;;;;;;;;;;;;;9.26;63.11;101494.66;4974524;28;2185;-95
2022/04/20 11:22:59;;;;;;;;;;;;;;;9.27;63.25;101490.97;4991553;28;1185;-96
2022/04/20 11:25:25;;;;;;;;;;;;;;;9.29;63.21;101491.59;4983343;28;1282;-95
2022/04/20 11:27:53;;;;;;;;;;;;;;;9.32;63.30;101495.75;4959029;28;1178;-95
2022/04/20 11:30:19;;;;;;;;;;;;;;;9.34;63.20;101482.97;4966553;28;3925;-95
2022/04/20 11:32:46;;;;;;;;;;;;;;;9.37;63.34;101484.44;4959666;28;1181;-96
2022/04/20 11:35:15;;;;;;;;;;;;;;;9.38;63.42;101478.84;4967162;28;1932;-95
2022/04/20 11:37:41;;;;;;;;;;;;;;;9.42;63.37;101472.09;4995115;28;1287;-95
2022/04/20 11:40:08;;;;;;;;;;;;;;;9.44;63.56;101480.81;4977209;28;1962;-95
2022/04/20 11:42:35;;;;;;;;;;;;;;;9.46;63.58;101476.06;4978265;28;1370;-96
2022/04/20 11:45:02;;;;;;;;;;;;;;;9.48;63.73;101484.78;4981878;28;1282;-96
2022/04/20 11:47:29;;;;;;;;;;;;;;;9.50;63.68;101471.13;4979408;28;2581;-96
2022/04/20 11:49:55;;;;;;;;;;;;;;;9.50;63.83;101472.00;4969989;28;2023;-96
2022/04/20 11:52:22;;;;;;;;;;;;;;;9.53;63.85;101468.91;4982301;28;1352;-96
2022/04/20 11:54:48;;;;;;;;;;;;;;;9.57;63.73;101465.84;4982206;28;1222;-95
2022/04/20 11:57:15;;;;;;;;;;;;;;;9.59;63.82;101464.63;4981672;28;1390;-96
2022/04/20 11:59:42;;;;;;;;;;;;;;;9.61;63.93;101467.13;4981948;28;1139;-95
2022/04/20 12:02:08;;;;;;;;;;;;;;;9.62;64.03;101469.63;4980458;28;1960;-95
2022/04/20 12:04:35;;;;;;;;;;;;;;;9.66;63.98;101464.69;4980868;28;1976;-96
2022/04/20 12:07:01;;;;;;;;;;;;;;;9.68;63.99;101459.97;4981503;28;1467;-95
2022/04/20 12:09:28;;;;;;;;;;;;;;;9.69;64.20;101458.94;4978384;28;1301;-96
2022/04/20 12:11:55;;;;;;;;;;;;;;;9.70;64.27;101453.34;4998384;28;1980;-96
2022/04/20 12:14:23;;;;;;;;;;;;;;;9.72;64.25;101448.63;4979685;28;2015;-96
2022/04/20 12:16:50;;;;;;;;;;;;;;;9.75;64.24;101455.47;4962785;28;1363;-96
2022/04/20 12:19:17;;;;;;;;;;;;;;;9.77;64.18;101451.56;4962071;28;1171;-95
2022/04/20 12:21:43;;;;;;;;;;;;;;;9.80;64.15;101449.53;4979781;28;2209;-95
2022/04/20 12:24:10;;;;;;;;;;;;;;;9.81;64.18;101443.94;4981277;28;1309;-95
2022/04/20 12:26:36;;;;;;;;;;;;;;;9.84;64.09;101440.03;4990726;28;1201;-95
2022/04/20 12:29:03;;;;;;;;;;;;;;;9.86;64.36;101440.69;5000641;28;1190;-96
2022/04/20 12:31:29;;;;;;;;;;;;;;;9.87;64.31;101429.72;4980385;28;2043;-96
2022/04/20 12:33:56;;;;;;;;;;;;;;;9.90;64.37;101437.41;4962032;28;1245;-96
2022/04/20 12:36:22;;;;;;;;;;;;;;;9.93;64.30;101434.31;4975644;28;1970;-96
2022/04/20 12:38:50;;;;;;;;;;;;;;;9.95;64.34;101431.44;4981652;28;1198;-96
2022/04/20 12:41:17;;;;;;;;;;;;;;;9.97;64.41;101430.22;4981029;28;1297;-96
2022/04/20 12:43:44;;;;;;;;;;;;;;;10.00;64.34;101434.41;4981266;28;1344;-96
2022/04/20 12:46:10;;;;;;;;;;;;;;;10.02;64.44;101435.84;4980982;28;1277;-95
2022/04/20 12:48:37;;;;;;;;;;;;;;;10.05;64.50;101426.53;4980981;28;1292;-96
2022/04/20 12:51:03;;;;;;;;;;;;;;;10.07;64.61;101424.50;4995548;28;2014;-95
2022/04/20 12:53:30;;;;;;;;;;;;;;;10.10;64.48;101425.97;4981403;28;1319;-96
2022/04/20 13:04:09;;;;;;;;;;;;;;;10.21;64.67;101417.38;4967074;28;1854;-96
2022/04/20 13:06:37;;;;;;;;;;;;;;;10.23;64.65;101417.97;4980307;28;2427;-96
2022/04/20 13:09:03;;;;;;;;;;;;;;;10.24;64.77;101401.66;4980567;28;1256;-96
2022/04/20 13:11:30;;;;;;;;;;;;;;;10.28;64.73;101410.19;4980559;28;1914;-96
2022/04/20 13:13:57;;;;;;;;;;;;;;;10.31;64.86;101403.59;4977382;28;1355;-96
2022/04/20 13:16:23;;;;;;;;;;;;;;;10.34;64.94;101400.50;4996864;28;1375;-96
2022/04/20 13:18:51;;;;;;;;;;;;;;;10.36;64.86;101403.81;4991290;28;2054;-96
2022/04/20 13:21:17;;;;;;;;;;;;;;;10.38;64.81;101394.53;4980428;28;1213;-95
2022/04/20 13:23:44;;;;;;;;;;;;;;;10.41;64.82;101415.69;4980372;28;1140;-96
2022/04/20 13:28:54;;;;;;;;;;;;;;;10.45;65.03;101389.16;4973540;28;1984;-96
2022/04/20 13:31:21;;;;;;;;;;;;;;;10.49;65.07;101393.13;4979522;28;1977;-96
2022/04/20 13:33:49;;;;;;;;;;;;;;;10.52;64.93;101392.72;4978970;28;1931;-96